Time;durP1;ratioP1;P1;durP2;ratioP2;P2;SDS_P1;SDS_P2;PMS_P1;PMS_P2;Temp;Humidity;BMP_temperature;BMP_pressure;BME280_temperature;BME280_humidity;BME280_pressure;Samples;Min_cycle;Max_cycle;Signal;HPM_P1;HPM_P2
2022/10/18 00:00:16;;;;;;;39.75;22.83;;;15.80;99.90;;;;;;5102041;28;20028;-75
2022/10/18 00:02:44;;;;;;;42.63;23.05;;;15.80;99.90;;;;;;5120132;28;20028;-75
2022/10/18 00:05:12;;;;;;;42.33;24.05;;;15.80;99.90;;;;;;5120034;28;20020;-75
2022/10/18 00:07:39;;;;;;;45.65;22.23;;;15.70;99.90;;;;;;5119991;28;20043;-75
2022/10/18 00:10:07;;;;;;;37.90;22.42;;;15.70;99.90;;;;;;5120310;28;20065;-75
2022/10/18 00:12:36;;;;;;;41.33;23.70;;;15.70;99.90;;;;;;5119826;28;20022;-75
2022/10/18 00:15:06;;;;;;;43.10;23.48;;;15.70;99.90;;;;;;5101710;28;20020;-75
2022/10/18 00:17:37;;;;;;;42.65;22.90;;;15.70;99.90;;;;;;5120076;28;20040;-75
2022/10/18 00:20:06;;;;;;;39.38;23.73;;;15.70;99.90;;;;;;5119916;28;20019;-75
2022/10/18 00:22:39;;;;;;;40.40;21.85;;;15.70;99.90;;;;;;5101119;28;20030;-75
2022/10/18 00:25:08;;;;;;;42.42;23.10;;;15.60;99.90;;;;;;5119661;28;20024;-75
2022/10/18 00:27:35;;;;;;;41.75;23.73;;;15.60;99.90;;;;;;5120069;28;20024;-75
2022/10/18 00:30:03;;;;;;;46.40;24.30;;;15.60;99.90;;;;;;5101530;28;20028;-75
2022/10/18 00:32:36;;;;;;;45.60;23.90;;;15.60;99.90;;;;;;5101421;28;20077;-75
2022/10/18 00:35:04;;;;;;;46.22;23.67;;;15.60;99.90;;;;;;5119473;28;20022;-75
2022/10/18 00:37:33;;;;;;;51.95;25.30;;;15.60;99.90;;;;;;5101329;28;20373;-75
2022/10/18 00:40:00;;;;;;;45.47;23.77;;;15.60;99.90;;;;;;5101356;28;20030;-75
2022/10/18 00:42:33;;;;;;;48.92;23.33;;;15.60;99.90;;;;;;5101088;28;20028;-75
2022/10/18 00:45:23;;;;;;;44.85;23.25;;;15.60;99.90;;;;;;5101198;28;20015;-75
2022/10/18 00:48:01;;;;;;;45.72;22.77;;;15.60;99.90;;;;;;5119365;28;20365;-75
2022/10/18 00:50:32;;;;;;;42.45;21.95;;;15.60;99.90;;;;;;5118980;28;20036;-75
2022/10/18 00:53:06;;;;;;;43.08;22.92;;;15.60;99.90;;;;;;5119133;28;20415;-75
2022/10/18 00:55:33;;;;;;;42.38;22.50;;;15.50;99.90;;;;;;5119067;28;20301;-75
2022/10/18 00:58:01;;;;;;;47.17;23.70;;;15.50;99.90;;;;;;5119501;28;20381;-75
2022/10/18 01:00:28;;;;;;;44.47;23.50;;;15.50;99.90;;;;;;5119235;28;20080;-75
2022/10/18 01:02:57;;;;;;;45.25;22.38;;;15.50;99.90;;;;;;5118925;28;20377;-75
2022/10/18 01:05:26;;;;;;;44.72;22.67;;;15.40;99.90;;;;;;5118848;28;20047;-75
2022/10/18 01:08:30;;;;;;;44.50;23.23;;;15.50;99.90;;;;;;5119010;28;20030;-75
2022/10/18 01:11:13;;;;;;;48.33;23.75;;;15.50;99.90;;;;;;5118652;28;20415;-75
2022/10/18 01:14:17;;;;;;;57.83;23.77;;;15.50;99.90;;;;;;5118636;28;20029;-75
2022/10/18 01:16:53;;;;;;;51.22;24.25;;;15.40;99.90;;;;;;5118880;28;20015;-75
2022/10/18 01:19:30;;;;;;;50.30;24.10;;;15.50;99.90;;;;;;5118750;28;20024;-75
2022/10/18 01:22:06;;;;;;;;;;;15.50;99.90;;;;;;5119255;28;20098;-75
2022/10/18 01:25:16;;;;;;;59.70;25.92;;;15.40;99.90;;;;;;5118800;28;20219;-75
2022/10/18 01:28:20;;;;;;;55.60;24.67;;;15.40;99.90;;;;;;5118669;28;20481;-75
2022/10/18 01:30:54;;;;;;;49.60;24.90;;;15.40;99.90;;;;;;5118257;28;20415;-75
2022/10/18 01:33:40;;;;;;;50.55;24.88;;;15.40;99.90;;;;;;5118307;28;20020;-75
2022/10/18 01:36:16;;;;;;;47.15;23.63;;;15.40;99.90;;;;;;5117513;28;20027;-75
2022/10/18 01:38:46;;;;;;;46.88;23.85;;;15.40;99.90;;;;;;5118402;28;20441;-75
2022/10/18 01:41:14;;;;;;;47.35;23.23;;;15.30;99.90;;;;;;5118694;28;20085;-75
2022/10/18 01:43:45;;;;;;;50.53;23.65;;;15.30;99.90;;;;;;5100019;28;20084;-75
2022/10/18 01:46:18;;;;;;;49.30;23.98;;;15.30;99.90;;;;;;5118026;28;20020;-75
2022/10/18 01:48:46;;;;;;;45.20;23.77;;;15.30;99.90;;;;;;5118711;28;20077;-75
2022/10/18 01:51:14;;;;;;;48.80;23.73;;;15.30;99.90;;;;;;5117747;28;20040;-75
2022/10/18 01:53:41;;;;;;;53.70;24.63;;;15.20;99.90;;;;;;5118235;28;20046;-75
2022/10/18 01:56:27;;;;;;;46.95;22.27;;;15.20;99.90;;;;;;5099793;28;20027;-75
2022/10/18 01:59:09;;;;;;;45.83;23.17;;;15.20;99.90;;;;;;5118229;28;20023;-75
2022/10/18 02:01:39;;;;;;;48.50;24.02;;;15.20;99.90;;;;;;5118054;28;20387;-75
2022/10/18 02:04:32;;;;;;;53.75;23.85;;;15.20;99.90;;;;;;5099652;28;20037;-75
2022/10/18 02:07:24;;;;;;;46.40;23.10;;;15.10;99.90;;;;;;5099873;28;20318;-75
2022/10/18 02:10:13;;;;;;;46.75;23.25;;;15.10;99.90;;;;;;5099667;28;20019;-75
2022/10/18 02:12:43;;;;;;;47.65;23.65;;;15.10;99.90;;;;;;5099383;28;20423;-75
2022/10/18 02:15:16;;;;;;;51.28;23.42;;;15.10;99.90;;;;;;5117535;28;20020;-75
2022/10/18 02:17:45;;;;;;;46.17;22.38;;;15.00;99.90;;;;;;5117526;28;20023;-75
2022/10/18 02:20:19;;;;;;;46.85;23.00;;;15.00;99.90;;;;;;5117481;28;20031;-75
2022/10/18 02:22:48;;;;;;;43.53;22.42;;;15.00;99.90;;;;;;5099407;28;20023;-75
2022/10/18 02:25:25;;;;;;;44.70;21.60;;;14.90;99.90;;;;;;5099319;28;20030;-75
2022/10/18 02:27:52;;;;;;;41.17;20.90;;;14.90;99.90;;;;;;5099387;28;20435;-75
2022/10/18 02:30:27;;;;;;;43.35;21.70;;;14.80;99.90;;;;;;5099158;28;20040;-75
2022/10/18 02:33:15;;;;;;;52.10;23.73;;;14.80;99.90;;;;;;5117618;28;20022;-75
2022/10/18 02:35:50;;;;;;;49.72;23.33;;;14.70;99.90;;;;;;5099202;28;20030;-75
2022/10/18 02:38:19;;;;;;;51.55;23.88;;;14.70;99.90;;;;;;5099279;28;20030;-75
2022/10/18 02:40:46;;;;;;;44.35;21.30;;;14.70;99.90;;;;;;5117152;28;20054;-75
2022/10/18 02:43:13;;;;;;;45.50;22.83;;;14.60;99.90;;;;;;5117344;28;20028;-76
2022/10/18 02:45:41;;;;;;;39.03;19.98;;;14.60;99.90;;;;;;5116944;28;20076;-75
2022/10/18 02:48:09;;;;;;;37.85;19.40;;;14.60;99.90;;;;;;5117244;28;20039;-77
2022/10/18 02:50:36;;;;;;;42.38;20.35;;;14.50;99.90;;;;;;5116851;28;20078;-75
2022/10/18 02:53:03;;;;;;;38.35;20.65;;;14.50;99.90;;;;;;5099013;28;20047;-75
2022/10/18 02:55:30;;;;;;;41.90;21.38;;;14.50;99.90;;;;;;5117524;28;20434;-75
2022/10/18 02:57:57;;;;;;;47.35;23.67;;;14.50;99.90;;;;;;5099002;28;20426;-75
2022/10/18 03:00:25;;;;;;;55.30;23.58;;;14.50;99.90;;;;;;5098903;28;20057;-75
2022/10/18 03:02:53;;;;;;;54.13;23.95;;;14.50;99.90;;;;;;5098857;28;20034;-75
2022/10/18 03:05:21;;;;;;;48.25;22.75;;;14.50;99.90;;;;;;5117478;28;20026;-75
2022/10/18 03:07:48;;;;;;;53.92;23.52;;;14.50;99.90;;;;;;5098934;28;20047;-75
2022/10/18 03:10:15;;;;;;;48.75;22.73;;;14.50;99.90;;;;;;5098742;28;20027;-76
2022/10/18 03:12:43;;;;;;;38.63;20.15;;;14.50;99.90;;;;;;5098776;28;20023;-75
2022/10/18 03:15:10;;;;;;;41.60;21.00;;;14.50;99.90;;;;;;5117394;28;20015;-75
2022/10/18 03:17:37;;;;;;;43.00;19.65;;;14.50;99.90;;;;;;5117384;28;20046;-75
2022/10/18 03:20:05;;;;;;;51.78;22.70;;;14.50;99.90;;;;;;5098864;28;20020;-75
2022/10/18 03:22:32;;;;;;;40.13;20.02;;;14.50;99.90;;;;;;5117020;28;20019;-75
2022/10/18 03:25:00;;;;;;;42.75;20.25;;;14.50;99.90;;;;;;5098662;28;20024;-75
2022/10/18 03:27:27;;;;;;;37.35;19.98;;;14.50;99.90;;;;;;5098562;28;20019;-75
2022/10/18 03:29:54;;;;;;;41.00;19.02;;;14.40;99.90;;;;;;5098740;28;20019;-75
2022/10/18 03:32:22;;;;;;;38.22;19.50;;;14.40;99.90;;;;;;5116673;28;20016;-76
2022/10/18 03:34:49;;;;;;;35.50;18.70;;;14.40;99.90;;;;;;5098575;28;20367;-75
2022/10/18 03:37:16;;;;;;;31.65;19.45;;;14.40;99.90;;;;;;5116872;28;20054;-76
2022/10/18 03:39:44;;;;;;;30.98;17.20;;;14.40;99.90;;;;;;5117032;28;20043;-75
2022/10/18 03:42:11;;;;;;;40.03;19.10;;;14.40;99.90;;;;;;5116550;28;20016;-76
2022/10/18 03:44:39;;;;;;;39.10;18.38;;;14.40;99.90;;;;;;5117042;28;20020;-75
2022/10/18 03:47:07;;;;;;;39.75;20.80;;;14.30;99.90;;;;;;5117085;28;20418;-75
2022/10/18 03:49:34;;;;;;;38.60;20.30;;;14.40;99.90;;;;;;5116707;28;20031;-75
2022/10/18 03:52:02;;;;;;;41.90;21.20;;;14.40;99.90;;;;;;5116177;28;20055;-76
2022/10/18 03:54:29;;;;;;;39.88;20.42;;;14.40;99.90;;;;;;5117061;28;20027;-76
2022/10/18 03:56:56;;;;;;;37.22;20.63;;;14.40;99.90;;;;;;5116702;28;20035;-75
2022/10/18 03:59:24;;;;;;;37.15;19.05;;;14.40;99.90;;;;;;5119736;28;20069;-75
2022/10/18 04:01:51;;;;;;;34.03;17.98;;;14.40;99.90;;;;;;5101982;28;20020;-76
2022/10/18 04:04:18;;;;;;;33.53;18.77;;;14.40;99.90;;;;;;5102045;28;20019;-76
2022/10/18 04:06:46;;;;;;;39.75;18.60;;;14.40;99.90;;;;;;5120308;28;20020;-75
2022/10/18 04:09:13;;;;;;;32.45;18.30;;;14.40;99.90;;;;;;5120739;28;20403;-76
2022/10/18 04:11:40;;;;;;;36.38;18.67;;;14.40;99.90;;;;;;5119800;28;20023;-76
2022/10/18 04:14:07;;;;;;;40.83;20.10;;;14.40;99.90;;;;;;5120068;28;20026;-76
2022/10/18 04:16:35;;;;;;;35.45;20.38;;;14.40;99.90;;;;;;5120422;28;20016;-75
2022/10/18 04:19:02;;;;;;;41.97;20.70;;;14.40;99.90;;;;;;5120491;28;20016;-75
2022/10/18 04:21:29;;;;;;;40.65;19.92;;;14.40;99.90;;;;;;5102176;28;20387;-75
2022/10/18 04:23:57;;;;;;;38.95;19.42;;;14.40;99.90;;;;;;5119725;28;20093;-76
2022/10/18 04:26:24;;;;;;;43.08;20.00;;;14.40;99.90;;;;;;5101546;28;20028;-76
2022/10/18 04:28:51;;;;;;;40.63;18.67;;;14.40;99.90;;;;;;5101641;28;20030;-76
2022/10/18 04:31:19;;;;;;;44.03;20.27;;;14.40;99.90;;;;;;5119436;28;20020;-75
2022/10/18 04:33:46;;;;;;;40.92;19.70;;;14.40;99.90;;;;;;5119511;28;20023;-76
2022/10/18 04:36:13;;;;;;;48.15;20.40;;;14.40;99.90;;;;;;5119518;28;20430;-75
2022/10/18 04:38:40;;;;;;;44.03;20.52;;;14.50;99.90;;;;;;5101293;28;20304;-76
2022/10/18 04:41:08;;;;;;;40.30;19.83;;;14.50;99.90;;;;;;5119926;28;20049;-76
2022/10/18 04:43:35;;;;;;;42.58;21.65;;;14.40;99.90;;;;;;5119447;28;20030;-76
2022/10/18 04:46:02;;;;;;;43.17;20.60;;;14.40;99.90;;;;;;5101223;28;20083;-75
2022/10/18 04:48:30;;;;;;;40.63;18.75;;;14.50;99.90;;;;;;5119776;28;20024;-76
2022/10/18 04:50:57;;;;;;;49.78;21.38;;;14.50;99.90;;;;;;5118818;28;20051;-76
2022/10/18 04:53:24;;;;;;;46.33;22.20;;;14.50;99.90;;;;;;5101188;28;20022;-76
2022/10/18 04:55:52;;;;;;;45.38;20.42;;;14.50;99.90;;;;;;5119050;28;20057;-76
2022/10/18 04:58:20;;;;;;;43.63;20.45;;;14.50;99.90;;;;;;5119289;28;20019;-76
2022/10/18 05:00:48;;;;;;;36.92;19.20;;;14.50;99.90;;;;;;5100852;28;20024;-75
2022/10/18 05:03:16;;;;;;;42.50;20.92;;;14.50;99.90;;;;;;5119367;28;20356;-75
2022/10/18 05:05:44;;;;;;;43.05;19.92;;;14.50;99.90;;;;;;5118376;28;20103;-76
2022/10/18 05:08:12;;;;;;;42.92;19.30;;;14.50;99.90;;;;;;5100742;28;20035;-77
2022/10/18 05:10:40;;;;;;;37.15;19.17;;;14.50;99.90;;;;;;5118699;28;20427;-76
2022/10/18 05:13:07;;;;;;;39.17;18.67;;;14.50;99.90;;;;;;5119116;28;20042;-76
2022/10/18 05:15:34;;;;;;;35.08;17.73;;;14.50;99.90;;;;;;5100617;28;20016;-76
2022/10/18 05:18:02;;;;;;;40.03;17.90;;;14.40;99.90;;;;;;5118943;28;20020;-76
2022/10/18 05:20:29;;;;;;;37.15;19.50;;;14.50;99.90;;;;;;5118568;28;20019;-76
2022/10/18 05:22:57;;;;;;;38.90;19.63;;;14.50;99.90;;;;;;5118684;28;20039;-76
2022/10/18 05:25:25;;;;;;;42.25;21.08;;;14.50;99.90;;;;;;5118766;28;20022;-76
2022/10/18 05:27:53;;;;;;;47.00;20.45;;;14.40;99.90;;;;;;5117126;28;20023;-76
2022/10/18 05:30:20;;;;;;;41.88;18.08;;;14.50;99.90;;;;;;5118573;28;20444;-76
2022/10/18 05:32:47;;;;;;;43.90;19.75;;;14.50;99.90;;;;;;5100397;28;20128;-76
2022/10/18 05:35:15;;;;;;;40.72;19.02;;;14.50;99.90;;;;;;5118303;28;20020;-76
2022/10/18 05:37:43;;;;;;;42.05;18.92;;;14.40;99.90;;;;;;5118313;28;20016;-76
2022/10/18 05:40:10;;;;;;;45.72;20.40;;;14.40;99.90;;;;;;5118466;28;20091;-76
2022/10/18 05:42:38;;;;;;;55.72;21.00;;;14.50;99.90;;;;;;5100145;28;20016;-76
2022/10/18 05:45:05;;;;;;;48.20;19.75;;;14.50;99.90;;;;;;5118661;28;20394;-76
2022/10/18 05:47:33;;;;;;;41.00;18.42;;;14.50;99.90;;;;;;5100053;28;20028;-76
2022/10/18 05:50:00;;;;;;;42.63;19.38;;;14.50;99.90;;;;;;5118154;28;20058;-76
2022/10/18 05:52:28;;;;;;;45.38;19.98;;;14.50;99.90;;;;;;5118416;28;20020;-76
2022/10/18 05:54:55;;;;;;;42.05;20.58;;;14.50;99.90;;;;;;5118514;28;20016;-76
2022/10/18 05:57:22;;;;;;;45.75;19.88;;;14.50;99.90;;;;;;5118453;28;20303;-76
2022/10/18 05:59:49;;;;;;;48.63;18.85;;;14.50;99.90;;;;;;5099698;28;20020;-76
2022/10/18 06:02:17;;;;;;;40.97;19.33;;;14.50;99.90;;;;;;5117743;28;20023;-76
2022/10/18 06:04:44;;;;;;;41.97;19.23;;;14.40;99.90;;;;;;5099698;28;20032;-76
2022/10/18 06:07:12;;;;;;;41.67;18.80;;;14.50;99.90;;;;;;5118284;28;20024;-76
2022/10/18 06:09:40;;;;;;;36.88;17.70;;;14.40;99.90;;;;;;5117684;28;20023;-76
2022/10/18 06:12:08;;;;;;;45.25;19.35;;;14.50;99.90;;;;;;5118101;28;20019;-76
2022/10/18 06:14:39;;;;;;;38.90;18.13;;;14.40;99.90;;;;;;5117743;28;20019;-76
2022/10/18 06:17:06;;;;;;;38.70;18.63;;;14.40;99.90;;;;;;5117548;28;20026;-76
2022/10/18 06:19:34;;;;;;;37.17;18.27;;;14.40;99.90;;;;;;5099476;28;20019;-76
2022/10/18 06:22:01;;;;;;;41.30;18.42;;;14.40;99.90;;;;;;5117025;28;20106;-76
2022/10/18 06:24:28;;;;;;;41.95;18.13;;;14.40;99.90;;;;;;5117826;28;20024;-76
2022/10/18 06:26:56;;;;;;;38.88;18.90;;;14.40;99.90;;;;;;5099351;28;20047;-76
2022/10/18 06:29:24;;;;;;;35.35;16.65;;;14.40;99.90;;;;;;5117314;28;20327;-76
2022/10/18 06:31:52;;;;;;;37.13;17.08;;;14.40;99.90;;;;;;5099816;28;20058;-76
2022/10/18 06:34:19;;;;;;;37.75;16.52;;;14.50;99.90;;;;;;5117705;28;20011;-76
2022/10/18 06:36:46;;;;;;;35.47;15.80;;;14.50;99.90;;;;;;5117788;28;20395;-76
2022/10/18 06:39:13;;;;;;;32.05;15.38;;;14.50;99.90;;;;;;5117255;28;20039;-75
2022/10/18 06:41:41;;;;;;;29.65;13.70;;;14.50;99.90;;;;;;5117202;28;20027;-75
2022/10/18 06:44:13;;;;;;;28.65;10.82;;;14.50;99.90;;;;;;5099161;28;20019;-77
2022/10/18 06:46:41;;;;;;;26.17;10.13;;;14.50;99.90;;;;;;5117028;28;20072;-77
2022/10/18 06:49:09;;;;;;;22.13;9.68;;;14.50;99.90;;;;;;5117094;28;20028;-77
2022/10/18 06:51:37;;;;;;;27.80;10.63;;;14.50;99.90;;;;;;5116706;28;20351;-77
2022/10/18 06:54:04;;;;;;;20.25;9.95;;;14.50;99.90;;;;;;5099117;28;20068;-77
2022/10/18 06:56:32;;;;;;;23.67;10.65;;;14.50;99.90;;;;;;5117299;28;20104;-77
2022/10/18 06:58:59;;;;;;;20.30;9.82;;;14.60;99.90;;;;;;5116965;28;20037;-77
2022/10/18 07:01:27;;;;;;;20.38;8.73;;;14.60;99.90;;;;;;5116970;28;20030;-77
2022/10/18 07:03:55;;;;;;;25.98;9.88;;;14.60;99.90;;;;;;5099072;28;20027;-77
2022/10/18 07:06:23;;;;;;;22.27;9.38;;;14.60;99.90;;;;;;5098829;28;20025;-77
2022/10/18 07:08:53;;;;;;;27.92;9.68;;;14.60;99.90;;;;;;5098870;28;20040;-77
2022/10/18 07:11:24;;;;;;;18.38;9.43;;;14.60;99.90;;;;;;5117039;28;20024;-77
2022/10/18 07:13:53;;;;;;;21.92;10.32;;;14.60;99.90;;;;;;5116749;28;20020;-77
2022/10/18 07:16:20;;;;;;;26.25;10.48;;;14.70;99.90;;;;;;5116768;28;20016;-77
2022/10/18 07:18:50;;;;;;;20.30;9.52;;;14.70;99.90;;;;;;5116807;28;20047;-77
2022/10/18 07:21:23;;;;;;;25.23;11.23;;;14.70;99.90;;;;;;5098668;28;20034;-77
2022/10/18 07:23:52;;;;;;;27.23;10.90;;;14.70;99.90;;;;;;5116786;28;20024;-77
2022/10/18 07:26:21;;;;;;;21.75;10.10;;;14.70;99.90;;;;;;5098222;28;20028;-77
2022/10/18 07:28:56;;;;;;;22.25;9.27;;;14.70;99.90;;;;;;5116782;28;20121;-77
2022/10/18 07:31:24;;;;;;;27.33;9.77;;;14.70;99.90;;;;;;5116658;28;20026;-78
2022/10/18 07:33:52;;;;;;;21.48;9.32;;;14.70;99.90;;;;;;5101144;28;20111;-79
2022/10/18 07:36:20;;;;;;;20.02;8.73;;;14.70;99.90;;;;;;5119923;28;20106;-80
2022/10/18 07:38:48;;;;;;;22.17;8.00;;;14.70;99.90;;;;;;5102918;28;20078;-79
2022/10/18 07:41:16;;;;;;;18.88;6.95;;;14.70;99.90;;;;;;5120523;28;20051;-80
2022/10/18 07:43:46;;;;;;;15.38;6.10;;;14.70;99.90;;;;;;5120738;28;20033;-83
2022/10/18 07:46:14;;;;;;;17.73;7.75;;;14.70;99.90;;;;;;5102367;28;20019;-82
2022/10/18 07:48:43;;;;;;;17.58;6.90;;;14.80;99.90;;;;;;5102826;28;20028;-84
2022/10/18 07:51:11;;;;;;;19.63;6.80;;;14.80;99.90;;;;;;5120115;28;20047;-84
2022/10/18 07:53:39;;;;;;;14.93;7.53;;;14.90;99.90;;;;;;5102265;28;20031;-84
2022/10/18 07:56:14;;;;;;;15.68;8.18;;;14.90;99.90;;;;;;5102132;28;20031;-83
2022/10/18 07:58:58;;;;;;;20.48;9.35;;;15.00;99.90;;;;;;5100735;28;20039;-82
2022/10/18 08:01:26;;;;;;;21.17;9.18;;;15.10;99.90;;;;;;5102106;28;20035;-82
2022/10/18 08:03:54;;;;;;;18.67;8.70;;;15.20;99.90;;;;;;5102005;28;20429;-81
2022/10/18 08:06:22;;;;;;;24.38;8.13;;;15.20;99.90;;;;;;5102003;28;20026;-82
2022/10/18 08:08:50;;;;;;;14.00;7.70;;;15.20;99.90;;;;;;5102017;28;20093;-82
2022/10/18 08:11:19;;;;;;;16.20;8.25;;;15.20;99.90;;;;;;5101215;28;20439;-82
2022/10/18 08:13:47;;;;;;;17.45;8.25;;;15.20;99.90;;;;;;5119884;28;20106;-78
2022/10/18 08:16:22;;;;;;;14.27;6.70;;;15.20;99.90;;;;;;5119922;28;20020;-77
2022/10/18 08:18:50;;;;;;;11.80;6.93;;;15.20;99.90;;;;;;5120312;28;20047;-77
2022/10/18 08:21:19;;;;;;;17.05;7.43;;;15.20;99.90;;;;;;5120059;28;20024;-77
2022/10/18 08:23:47;;;;;;;15.63;7.07;;;15.20;99.90;;;;;;5119792;28;20027;-88
2022/10/18 08:26:16;;;;;;;14.43;5.95;;;15.10;99.90;;;;;;5102075;28;20110;-77
2022/10/18 08:28:44;;;;;;;17.33;6.85;;;15.10;99.90;;;;;;5120110;28;20318;-77
2022/10/18 08:31:17;;;;;;;12.65;6.35;;;15.20;99.90;;;;;;5101394;28;20378;-76
2022/10/18 08:33:46;;;;;;;16.65;6.43;;;15.20;99.90;;;;;;5120136;28;20423;-76
2022/10/18 08:36:15;;;;;;;18.10;6.88;;;15.20;99.90;;;;;;5101442;28;20114;-76
2022/10/18 08:38:43;;;;;;;13.68;6.22;;;15.10;99.90;;;;;;5101783;28;20323;-76
2022/10/18 08:41:23;;;;;;;15.38;6.45;;;15.10;99.90;;;;;;5119681;28;20069;-75
2022/10/18 08:44:06;;;;;;;15.30;6.88;;;15.10;99.90;;;;;;5119582;28;20095;-76
2022/10/18 08:46:45;;;;;;;14.23;6.90;;;15.10;99.90;;;;;;5119601;28;20016;-76
2022/10/18 08:49:27;;;;;;;13.02;6.55;;;15.10;99.90;;;;;;5119444;28;20026;-76
2022/10/18 08:51:56;;;;;;;15.65;6.18;;;15.20;99.90;;;;;;5118907;28;20040;-76
2022/10/18 08:54:39;;;;;;;14.95;6.70;;;15.20;99.90;;;;;;5119445;28;20039;-77
2022/10/18 08:57:14;;;;;;;11.50;6.20;;;15.20;99.90;;;;;;5119643;28;20359;-77
2022/10/18 08:59:42;;;;;;;10.65;6.07;;;15.10;99.90;;;;;;5119175;28;20111;-76
2022/10/18 09:02:35;;;;;;;11.82;6.63;;;15.10;99.90;;;;;;5119241;28;20430;-76
2022/10/18 09:05:25;;;;;;;16.25;8.63;;;15.10;99.90;;;;;;5119452;28;20028;-77
2022/10/18 09:08:09;;;;;;;24.35;11.60;;;15.10;99.90;;;;;;5100954;28;20089;-77
2022/10/18 09:10:42;;;;;;;82.45;37.72;;;15.10;99.90;;;;;;5118694;28;20327;-76
2022/10/18 09:13:27;;;;;;;28.70;14.00;;;15.10;99.90;;;;;;5118960;28;20098;-75
2022/10/18 09:16:26;;;;;;;20.30;11.80;;;15.10;99.90;;;;;;5100581;28;20020;-75
2022/10/18 09:19:13;;;;;;;19.45;7.25;;;15.10;99.90;;;;;;5080910;28;20031;-75
2022/10/18 09:21:54;;;;;;;12.65;5.55;;;15.20;99.90;;;;;;5118819;28;20020;-75
2022/10/18 09:24:46;;;;;;;9.75;6.03;;;15.20;99.90;;;;;;5118614;28;20020;-75
2022/10/18 09:27:19;;;;;;;13.43;6.05;;;15.20;99.90;;;;;;5118490;28;20411;-75
2022/10/18 09:30:01;;;;;;;13.35;5.85;;;15.30;99.90;;;;;;5100431;28;20118;-76
2022/10/18 09:32:59;;;;;;;17.42;7.38;;;15.40;99.90;;;;;;5100235;28;20024;-75
2022/10/18 09:35:34;;;;;;;13.93;7.80;;;15.50;99.90;;;;;;5100283;28;20032;-75
2022/10/18 09:38:10;;;;;;;16.30;7.43;;;15.70;99.90;;;;;;5118504;28;20043;-75
2022/10/18 09:40:44;;;;;;;;;;;15.70;99.90;;;;;;5100506;28;20514;-76
2022/10/18 09:43:21;;;;;;;12.30;6.80;;;15.70;99.90;;;;;;5118435;28;19904;-75
2022/10/18 09:45:51;;;;;;;12.90;6.13;;;15.80;99.90;;;;;;5118115;28;20422;-75
2022/10/18 09:48:32;;;;;;;11.63;5.57;;;15.80;99.90;;;;;;5118775;28;20023;-75
2022/10/18 09:51:20;;;;;;;14.45;6.57;;;15.90;99.90;;;;;;5117686;28;20051;-75
2022/10/18 09:54:03;;;;;;;12.57;5.93;;;16.10;99.90;;;;;;5117991;28;20323;-75
2022/10/18 09:56:43;;;;;;;13.02;7.43;;;16.20;99.90;;;;;;5117442;28;20289;-75
2022/10/18 09:59:32;;;;;;;15.88;6.55;;;16.20;99.90;;;;;;5118268;28;20012;-76
2022/10/18 10:02:00;;;;;;;21.77;10.93;;;16.20;99.90;;;;;;5118066;28;20043;-76
2022/10/18 10:04:27;;;;;;;35.10;15.23;;;16.20;99.90;;;;;;5100551;28;20028;-75
2022/10/18 10:06:56;;;;;;;36.13;15.70;;;16.20;99.90;;;;;;5117720;28;20015;-76
2022/10/18 10:09:40;;;;;;;35.58;18.05;;;16.20;99.90;;;;;;5117863;28;20106;-76
2022/10/18 10:12:29;;;;;;;36.35;16.88;;;16.20;99.90;;;;;;5117533;28;20027;-75
2022/10/18 10:15:25;;;;;;;36.25;17.30;;;16.20;99.90;;;;;;5117574;28;20430;-75
2022/10/18 10:17:56;;;;;;;36.88;17.80;;;16.20;99.90;;;;;;5118316;28;20031;-75
2022/10/18 10:20:45;;;;;;;34.40;16.60;;;16.30;99.90;;;;;;5117468;28;20023;-75
2022/10/18 10:23:27;;;;;;;35.92;16.52;;;16.30;99.90;;;;;;5117786;28;20024;-76
2022/10/18 10:26:00;;;;;;;29.25;14.85;;;16.50;99.90;;;;;;5099351;28;20050;-75
2022/10/18 10:28:35;;;;;;;32.42;15.88;;;16.60;99.90;;;;;;5117651;28;20056;-76
2022/10/18 10:31:28;;;;;;;35.67;16.60;;;16.70;99.90;;;;;;5117894;28;20051;-75
2022/10/18 10:34:05;;;;;;;32.08;16.58;;;16.80;99.90;;;;;;5117332;28;20028;-75
2022/10/18 10:36:33;;;;;;;37.30;18.98;;;16.90;99.90;;;;;;5117258;28;20012;-75
2022/10/18 10:39:18;;;;;;;32.35;16.13;;;16.90;99.90;;;;;;5117199;28;20019;-75
2022/10/18 10:42:00;;;;;;;37.97;19.55;;;16.90;99.90;;;;;;5117131;28;20047;-75
2022/10/18 10:44:35;;;;;;;36.95;19.00;;;16.80;99.90;;;;;;5117055;28;20027;-75
2022/10/18 10:47:03;;;;;;;32.10;16.17;;;16.80;99.90;;;;;;5117165;28;20047;-76
2022/10/18 10:49:47;;;;;;;43.72;23.98;;;16.80;99.90;;;;;;5117602;28;20062;-75
2022/10/18 10:52:20;;;;;;;43.42;25.00;;;16.80;99.90;;;;;;5077189;28;20033;-75
2022/10/18 10:54:47;;;;;;;38.63;18.58;;;16.90;99.90;;;;;;5076506;28;20043;-75
2022/10/18 10:57:15;;;;;;;33.17;16.33;;;16.90;99.90;;;;;;5076500;28;20017;-75
2022/10/18 10:59:47;;;;;;;34.80;18.75;;;17.00;99.90;;;;;;5076394;28;20027;-75
2022/10/18 11:02:18;;;;;;;33.97;18.60;;;17.10;99.90;;;;;;5077143;28;20033;-75
2022/10/18 11:04:47;;;;;;;39.38;19.60;;;17.10;99.90;;;;;;5076677;28;20056;-75
2022/10/18 11:07:43;;;;;;;37.67;18.33;;;17.10;99.90;;;;;;5078190;28;20031;-75
2022/10/18 11:10:13;;;;;;;36.92;18.42;;;17.10;99.90;;;;;;5080395;28;20025;-80
2022/10/18 11:12:44;;;;;;;33.75;17.40;;;17.10;99.90;;;;;;5079684;28;20340;-74
2022/10/18 11:15:47;;;;;;;32.95;16.90;;;17.20;99.90;;;;;;5080360;28;20070;-75
2022/10/18 11:18:33;;;;;;;35.75;17.73;;;17.40;99.90;;;;;;5079831;28;20090;-75
2022/10/18 11:21:00;;;;;;;29.07;16.67;;;17.60;99.90;;;;;;5081101;28;20103;-77
2022/10/18 11:23:33;;;;;;;32.00;17.08;;;17.70;99.90;;;;;;5079839;28;20331;-75
2022/10/18 11:26:12;;;;;;;29.23;15.13;;;17.80;99.90;;;;;;5079089;28;20032;-75
2022/10/18 11:29:07;;;;;;;24.48;14.10;;;17.90;99.90;;;;;;5079314;28;20032;-76
2022/10/18 11:32:02;;;;;;;23.77;13.43;;;17.80;99.90;;;;;;5080328;28;20435;-76
2022/10/18 11:35:00;;;;;;;24.92;14.38;;;17.90;99.90;;;;;;5080252;28;20411;-75
2022/10/18 11:37:41;;;;;;;24.08;13.88;;;18.00;99.90;;;;;;5080225;28;20439;-75
2022/10/18 11:40:43;;;;;;;21.70;13.00;;;18.20;99.90;;;;;;5079880;28;20021;-75
2022/10/18 11:43:47;;;;;;;22.50;12.02;;;18.30;99.90;;;;;;5079909;28;20028;-76
2022/10/18 11:46:22;;;;;;;20.45;11.88;;;18.30;99.90;;;;;;5078710;28;20391;-77
2022/10/18 11:49:08;;;;;;;24.35;13.02;;;18.30;99.90;;;;;;5080058;28;20297;-75
2022/10/18 11:52:08;;;;;;;21.98;13.40;;;18.20;99.90;;;;;;5110953;28;20047;-79
2022/10/18 11:54:58;;;;;;;26.77;13.75;;;18.10;99.90;;;;;;5120313;28;20056;-75
2022/10/18 11:57:32;;;;;;;22.50;13.73;;;18.10;99.90;;;;;;5120524;28;20012;-75
2022/10/18 12:00:16;;;;;;;20.38;12.50;;;18.10;99.90;;;;;;5120488;28;20315;-75
2022/10/18 12:03:13;;;;;;;26.35;14.38;;;18.00;99.90;;;;;;5120610;28;20064;-75
2022/10/18 12:05:44;;;;;;;25.50;13.70;;;18.00;99.90;;;;;;5120387;28;20024;-75
2022/10/18 12:08:17;;;;;;;20.52;13.25;;;18.10;99.90;;;;;;5120662;28;20027;-75
2022/10/18 12:10:51;;;;;;;23.95;13.68;;;18.10;99.90;;;;;;5120632;28;20028;-78
2022/10/18 12:13:41;;;;;;;24.60;13.35;;;18.00;99.90;;;;;;5120353;28;20019;-79
2022/10/18 12:16:10;;;;;;;22.65;13.60;;;18.00;99.90;;;;;;5119921;28;20023;-75
2022/10/18 12:18:55;;;;;;;26.23;14.02;;;18.00;99.90;;;;;;5119460;28;20080;-75
2022/10/18 12:21:26;;;;;;;22.80;12.87;;;18.00;99.90;;;;;;5119846;28;20106;-75
2022/10/18 12:24:07;;;;;;;25.88;14.20;;;18.00;99.90;;;;;;5120500;28;20077;-78
2022/10/18 12:26:36;;;;;;;63.30;32.17;;;18.10;99.90;;;;;;5119730;28;20020;-79
2022/10/18 12:29:26;;;;;;;23.60;14.00;;;18.20;99.90;;;;;;5101578;28;20031;-75
2022/10/18 12:32:09;;;;;;;21.10;11.63;;;18.30;99.90;;;;;;5102135;28;20020;-75
2022/10/18 12:34:42;;;;;;;21.58;9.88;;;18.40;99.90;;;;;;5119546;28;20027;-76
2022/10/18 12:37:46;;;;;;;19.70;10.07;;;18.40;99.90;;;;;;5101403;28;20020;-76
2022/10/18 12:40:22;;;;;;;27.88;11.32;;;18.30;99.90;;;;;;5119435;28;20012;-75
2022/10/18 12:42:52;;;;;;;21.23;10.15;;;18.40;99.90;;;;;;5101346;28;20027;-77
2022/10/18 12:45:31;;;;;;;24.20;9.68;;;18.40;99.90;;;;;;5119656;28;20354;-75
2022/10/18 12:48:26;;;;;;;18.08;9.02;;;18.50;99.90;;;;;;5119324;28;20019;-75
2022/10/18 12:51:15;;;;;;;17.05;9.05;;;18.50;99.90;;;;;;5118955;28;20036;-75
2022/10/18 12:53:56;;;;;;;17.40;10.05;;;18.50;99.90;;;;;;5119647;28;20106;-76
2022/10/18 12:56:30;;;;;;;17.92;10.20;;;18.50;99.90;;;;;;5119696;28;20026;-75
2022/10/18 12:59:15;;;;;;;19.30;9.45;;;18.60;99.90;;;;;;5119201;28;20034;-75
2022/10/18 13:01:52;;;;;;;16.60;9.32;;;18.60;99.90;;;;;;5101036;28;20331;-75